Flight Track Log - Related Links

Times and Time Zones

All times are in EDT time to prevent confusion due to time zone crossing. See the EJA640 flight status page for this flight to view local times or setup timezone preferences in your user account.

Time Position Orientation Groundspeed Altitude Reporting Facility
EDT Latitude Longitude Course Direction KTS MPH feet Rate Location/Type
Fri 08:01:51 PM 35.6731 -120.7825 32° Northeast 344 396 17,000  Level Oakland Center
Fri 08:02:52 PM 35.7544 -120.7206 32° Northeast 340 391 17,000  Level Oakland Center
Fri 08:03:54 PM 35.8342 -120.6575 33° Northeast 341 392 17,000  Level Oakland Center
Fri 08:04:55 PM 35.9125 -120.5958 33° Northeast 335 386 17,000  Level Oakland Center
Fri 08:05:57 PM 35.9911 -120.5336 33° Northeast 334 384 17,000  Level Oakland Center
Fri 08:06:58 PM 36.0719 -120.4678 33° Northeast 344 396 17,000  Level Oakland Center
Fri 08:08:00 PM 36.1508 -120.4058 32° Northeast 336 387 17,000 -49 Level Oakland Center
Fri 08:09:01 PM 36.2447 -120.3297 33° Northeast 335 386 16,900 -341 Descending Oakland Center
Fri 08:10:03 PM 36.3203 -120.2694 33° Northeast 322 371 16,300 -732 Descending Oakland Center
Fri 08:11:04 PM 36.3917 -120.2114 33° Northeast 309 356 15,400 -123 Descending Oakland Center
Fri 08:13:00 PM 36.5243 -120.2324 34° Northeast  Level Estimated
Fri 08:20:00 PM 37.0043 -120.3091 32° Northeast  Level Estimated
Fri 08:21:00 PM 37.0729 -120.3201 North  Level Estimated
Fri 08:22:00 PM 37.1415 -120.3312 North  Level Estimated
Fri 08:23:00 PM 37.2094 -120.3421 353° North  Level Estimated
Fri 08:24:00 PM 37.2773 -120.3531 353° North  Level Estimated
Fri 08:25:00 PM 37.3452 -120.3641 353° North  Level Estimated
Fri 08:26:00 PM 37.4131 -120.3751 353° North  Level Estimated
Fri 08:27:00 PM 37.4809 -120.3862 353° North  Level Estimated
Fri 08:28:00 PM 37.5488 -120.3972 353° North  Level Estimated
Fri 08:29:00 PM 37.6167 -120.4083 353° North  Level Estimated
Fri 08:30:00 PM 37.6846 -120.4194 353° North  Level Estimated
Fri 08:31:00 PM 37.7525 -120.4305 353° North  Level Estimated
Fri 08:32:00 PM 37.8204 -120.4417 353° North  Level Estimated
Fri 08:33:00 PM 37.8882 -120.4528 353° North  Level Estimated
Fri 08:34:00 PM 37.9561 -120.4640 353° North  Level Estimated
Fri 08:35:00 PM 38.0240 -120.4752 353° North  Level Estimated
Fri 08:36:00 PM 38.0919 -120.4864 353° North  Level Estimated
Fri 08:37:00 PM 38.1598 -120.4977 353° North  Level Estimated
Fri 08:38:00 PM 38.2276 -120.5090 353° North  Level Estimated
Fri 08:39:00 PM 38.2955 -120.5202 353° North  Level Estimated
Fri 08:40:00 PM 38.3634 -120.5316 353° North  Level Estimated
Fri 08:41:00 PM 38.4313 -120.5429 353° North  Level Estimated
Fri 08:42:00 PM 38.4991 -120.5542 353° North  Level Estimated
Fri 08:43:00 PM 38.5670 -120.5656 353° North  Level Estimated
Fri 08:44:00 PM 38.6349 -120.5770 353° North  Level Estimated
Fri 08:45:00 PM 38.7027 -120.5884 353° North  Level Estimated
Fri 08:46:00 PM 38.7706 -120.5999 353° North  Level Estimated
Fri 08:47:00 PM 38.8385 -120.6113 353° North  Level Estimated
Fri 08:48:00 PM 38.9063 -120.6228 352° North  Level Estimated
Fri 08:49:00 PM 38.9742 -120.6343 352° North  Level Estimated
Fri 08:50:00 PM 39.0420 -120.6458 352° North  Level Estimated
Fri 08:51:00 PM 39.1099 -120.6574 352° North  Level Estimated
Fri 08:52:00 PM 39.1778 -120.6690 352° North  Level Estimated
Fri 08:53:00 PM 39.2456 -120.6805 352° North  Level Estimated
Fri 08:54:00 PM 39.3135 -120.6922 352° North  Level Estimated
Fri 08:55:00 PM 39.3814 -120.7038 352° North  Level Estimated
Fri 08:56:00 PM 39.4492 -120.7155 352° North  Level Estimated
Fri 08:57:00 PM 39.5171 -120.7271 352° North  Level Estimated
Fri 08:58:00 PM 39.5849 -120.7389 352° North  Level Estimated
Fri 08:59:00 PM 39.6528 -120.7506 352° North  Level Estimated
Fri 09:00:00 PM 39.7206 -120.7623 352° North  Level Estimated
Fri 09:01:00 PM 39.7885 -120.7741 352° North  Level Estimated
Fri 09:02:00 PM 39.8563 -120.7859 352° North  Level Estimated
Fri 09:03:00 PM 39.9242 -120.7977 352° North  Level Estimated
Fri 09:04:00 PM 39.9920 -120.8096 352° North  Level Estimated
Fri 09:05:00 PM 40.0598 -120.8215 352° North  Level Estimated
Fri 09:06:00 PM 40.1277 -120.8334 352° North  Level Estimated
Fri 09:07:00 PM 40.1955 -120.8453 352° North  Level Estimated
Fri 09:08:00 PM 40.2634 -120.8572 352° North  Level Estimated
Fri 09:09:00 PM 40.3312 -120.8692 352° North  Level Estimated
Fri 09:10:00 PM 40.3991 -120.8812 352° North  Level Estimated
Fri 09:11:00 PM 40.4669 -120.8932 352° North  Level Estimated
Fri 09:12:00 PM 40.5347 -120.9052 352° North  Level Estimated
Fri 09:13:00 PM 40.6026 -120.9173 352° North  Level Estimated
Fri 09:14:00 PM 40.6704 -120.9294 352° North  Level Estimated
Fri 09:15:00 PM 40.7382 -120.9415 352° North  Level Estimated
Fri 09:16:00 PM 40.8060 -120.9536 352° North  Level Estimated
Fri 09:17:00 PM 40.8739 -120.9658 352° North  Level Estimated
Fri 09:18:00 PM 40.9417 -120.9780 352° North  Level Estimated
Fri 09:19:00 PM 41.0095 -120.9902 352° North  Level Estimated
Fri 09:20:00 PM 41.0774 -121.0024 352° North  Level Estimated
Fri 09:21:00 PM 41.1452 -121.0147 352° North  Level Estimated
Fri 09:22:00 PM 41.2130 -121.0269 352° North  Level Estimated
Fri 09:23:00 PM 41.2808 -121.0393 352° North  Level Estimated
Fri 09:24:00 PM 41.3487 -121.0516 352° North  Level Estimated
Fri 09:24:02 PM 36.8511 -119.8361 352° North 228 262 7,200  Level Oakland Center
Fri 09:25:00 PM 41.4165 -121.0640 352° North  Level Estimated
Fri 09:25:03 PM 36.9000 -119.9111 309° West 271 312 9,900  Level Oakland Center
Fri 09:26:00 PM 41.4843 -121.0763 352° North  Level Estimated
Fri 09:26:04 PM 36.9508 -120.0017 305° West 320 368 10,600  Level Oakland Center
Fri 09:27:00 PM 41.5521 -121.0888 352° North  Level Estimated
Fri 09:27:06 PM 36.9603 -120.1131 276° West 325 374 12,100  Level Oakland Center
Fri 09:28:00 PM 41.6199 -121.1012 352° North  Level Estimated
Fri 09:28:07 PM 36.9678 -120.2317 275° West 327 376 13,700  Level Oakland Center
Fri 09:29:00 PM 41.6877 -121.1137 352° North  Level Estimated
Fri 09:29:09 PM 36.9756 -120.3483 275° West 336 387 14,000  Level Oakland Center
Fri 09:30:10 PM 36.9828 -120.4697 274° West 349 402 14,000  Level Oakland Center
Fri 09:31:11 PM 36.9900 -120.5936 274° West 354 407 14,000  Level Oakland Center
Fri 09:32:13 PM 36.9981 -120.7161 275° West 354 407 14,000 -488 Level Oakland Center
Fri 09:33:14 PM 37.0056 -120.8364 275° West 348 400 13,000 -1,230 Descending Oakland Center
Fri 09:34:15 PM 37.0119 -120.9597 274° West 352 405 11,500 -1,415 Descending Oakland Center
Fri 09:35:17 PM 37.0197 -121.0800 275° West 350 403 10,100 -732 Descending Oakland Center
Fri 09:36:18 PM 37.0267 -121.2161 274° West 342 394 10,000 -49 Descending Oakland Center
Fri 09:37:20 PM 37.0333 -121.3322 274° West 336 387 10,000 -244 Level Oakland Center
Fri 09:38:21 PM 37.0383 -121.4425 273° West 323 372 9,500 -984 Descending Oakland Center
Fri 09:39:22 PM 37.0700 -121.5264 295° West 278 320 8,000 -1,512 Descending Oakland Center
Fri 09:40:24 PM 37.1128 -121.6061 304° West 263 303 6,400 -1,463 Descending Oakland Center
Fri 09:41:25 PM 37.1467 -121.6825 299° West 267 307 5,000 -984 Descending Oakland Center
Fri 09:42:26 PM 37.1858 -121.7456 308° West 245 282 4,400 -976 Descending Oakland Center
Fri 09:43:28 PM 37.2392 -121.7964 323° Northwest 214 246 3,000 -1,122 Descending Oakland Center
Fri 09:44:29 PM 37.2772 -121.8372 320° Northwest 195 224 2,100 -885 Descending Oakland Center
Fri 09:45:30 PM 37.3114 -121.8764 318° Northwest 180 207 1,200 -732 Descending Oakland Center
Fri 09:46:32 PM 37.3342 -121.9011 319° Northwest 133 153 600 5,268 Descending Oakland Center
Fri 09:47:33 PM 37.3561 -121.9253 319° Northwest 115 132 12,000 11,213 Climbing Oakland Center
Fri 09:49:00 PM 37.3500 -121.9167 North  Level FlightAware Approximate
Fri 09:56:00 PM 37.9365 -121.9358 North  Level Estimated
Fri 09:57:00 PM 38.0203 -121.9385 North  Level Estimated
Fri 09:58:00 PM 38.1041 -121.9413 North  Level Estimated
Fri 09:59:00 PM 38.1879 -121.9441 North  Level Estimated
Fri 10:00:00 PM 38.2717 -121.9468 North  Level Estimated
Fri 10:01:00 PM 38.3555 -121.9496 North  Level Estimated
Fri 10:02:00 PM 38.4393 -121.9524 North  Level Estimated
Fri 10:03:00 PM 38.5230 -121.9552 North  Level Estimated
Fri 10:04:00 PM 38.6068 -121.9580 North  Level Estimated
Fri 10:05:00 PM 38.6906 -121.9608 North  Level Estimated
Fri 10:06:00 PM 38.7744 -121.9636 North  Level Estimated
Fri 10:07:00 PM 38.8582 -121.9664 North  Level Estimated
Fri 10:08:00 PM 38.9420 -121.9693 North  Level Estimated
Fri 10:09:00 PM 39.0258 -121.9721 North  Level Estimated
Fri 10:10:00 PM 39.1096 -121.9749 North  Level Estimated
Fri 10:11:00 PM 39.1934 -121.9778 North  Level Estimated
Fri 10:12:00 PM 39.2771 -121.9806 North  Level Estimated
Fri 10:13:00 PM 39.3609 -121.9835 North  Level Estimated
Fri 10:14:00 PM 39.4447 -121.9864 North  Level Estimated
Fri 10:15:00 PM 39.5285 -121.9892 North  Level Estimated
Fri 10:16:00 PM 39.6123 -121.9921 North  Level Estimated
Fri 10:17:00 PM 39.6961 -121.9950 North  Level Estimated
Fri 10:18:00 PM 39.7799 -121.9979 North  Level Estimated
Fri 10:19:00 PM 39.8637 -122.0008 North  Level Estimated
Fri 10:20:00 PM 39.9474 -122.0037 North  Level Estimated
Fri 10:21:00 PM 40.0312 -122.0066 North  Level Estimated
Fri 10:22:00 PM 40.1150 -122.0095 North  Level Estimated
Fri 10:23:00 PM 40.1988 -122.0125 North  Level Estimated
Fri 10:24:00 PM 40.2826 -122.0154 North  Level Estimated
Fri 10:25:00 PM 40.3663 -122.0183 North  Level Estimated
Fri 10:26:00 PM 40.4501 -122.0213 North  Level Estimated
Fri 10:27:00 PM 40.5339 -122.0242 North  Level Estimated
Fri 10:28:00 PM 40.6177 -122.0272 North  Level Estimated
Fri 10:29:00 PM 40.7015 -122.0302 North  Level Estimated
Fri 10:30:00 PM 40.7852 -122.0332 North  Level Estimated
Fri 10:31:00 PM 40.8690 -122.0361 North  Level Estimated
Fri 10:32:00 PM 40.9528 -122.0391 North  Level Estimated
Fri 10:33:00 PM 41.0366 -122.0422 North  Level Estimated
Fri 10:34:00 PM 41.1203 -122.0452 North  Level Estimated
Fri 10:35:00 PM 41.2041 -122.0482 North  Level Estimated
Fri 10:36:00 PM 41.2879 -122.0512 North  Level Estimated
Fri 10:37:00 PM 41.3717 -122.0542 North  Level Estimated
Fri 10:38:00 PM 41.4555 -122.0573 North  Level Estimated
Fri 10:39:00 PM 41.5392 -122.0603 North  Level Estimated
Fri 10:40:00 PM 41.6230 -122.0634 North  Level Estimated
Fri 10:41:00 PM 41.7068 -122.0665 North  Level Estimated
Fri 10:42:00 PM 41.7906 -122.0695 North  Level Estimated
Fri 10:43:00 PM 41.8744 -122.0726 North  Level Estimated
Fri 10:44:00 PM 41.9581 -122.0757 North  Level Estimated
Fri 10:45:00 PM 42.0419 -122.0788 North  Level Estimated
Fri 10:46:00 PM 42.1257 -122.0819 North  Level Estimated
Fri 10:47:00 PM 42.2095 -122.0850 North  Level Estimated
Fri 10:48:00 PM 42.2933 -122.0881 North  Level Estimated
Fri 10:49:00 PM 42.3770 -122.0913 North  Level Estimated
Fri 10:50:00 PM 42.4608 -122.0944 North  Level Estimated
Fri 10:51:00 PM 42.5446 -122.0976 North  Level Estimated
Fri 10:52:00 PM 42.6284 -122.1007 North  Level Estimated
Fri 10:53:00 PM 42.7122 -122.1039 North  Level Estimated
Fri 10:54:00 PM 42.7960 -122.1070 North  Level Estimated
Fri 10:55:00 PM 42.8797 -122.1102 North  Level Estimated
Fri 10:56:00 PM 42.9635 -122.1134 North  Level Estimated
Fri 10:57:00 PM 43.0473 -122.1166 North  Level Estimated
Fri 10:58:00 PM 43.1311 -122.1198 North  Level Estimated
Fri 10:59:00 PM 43.2149 -122.1230 North  Level Estimated
Fri 11:00:00 PM 43.2986 -122.1263 North  Level Estimated
Fri 11:01:00 PM 43.3824 -122.1295 North  Level Estimated
Fri 11:02:00 PM 43.4662 -122.1328 North  Level Estimated
Fri 11:03:00 PM 43.5500 -122.1360 North  Level Estimated
Fri 11:04:00 PM 43.6338 -122.1393 North  Level Estimated
Fri 11:05:00 PM 43.7175 -122.1425 North  Level Estimated
Fri 11:06:00 PM 43.8013 -122.1458 North  Level Estimated
Fri 11:07:00 PM 43.8851 -122.1491 North  Level Estimated
Fri 11:08:00 PM 43.9689 -122.1524 North  Level Estimated
Fri 11:09:00 PM 44.0527 -122.1557 North  Level Estimated
Fri 11:10:00 PM 44.1364 -122.1590 North  Level Estimated
Fri 11:11:00 PM 44.2202 -122.1624 North  Level Estimated
Fri 11:12:00 PM 44.3040 -122.1657 North  Level Estimated
Fri 11:13:00 PM 44.3878 -122.1691 North  Level Estimated
Fri 11:14:00 PM 44.4715 -122.1724 North  Level Estimated
Fri 11:15:00 PM 44.5553 -122.1758 North  Level Estimated
Fri 11:16:00 PM 44.6391 -122.1791 North  Level Estimated
Fri 11:17:00 PM 44.7229 -122.1825 North  Level Estimated
Fri 11:18:00 PM 44.8067 -122.1859 North  Level Estimated
Fri 11:19:00 PM 44.8904 -122.1893 North  Level Estimated
Fri 11:20:00 PM 44.9742 -122.1927 North  Level Estimated
Fri 11:21:00 PM 45.0580 -122.1961 North  Level Estimated
Fri 11:22:00 PM 45.1418 -122.1996 North  Level Estimated
Fri 11:23:00 PM 45.2256 -122.2030 North  Level Estimated
Fri 11:24:00 PM 45.3093 -122.2065 North  Level Estimated
Fri 11:25:00 PM 45.3931 -122.2099 North  Level Estimated
Fri 11:26:00 PM 45.4769 -122.2134 North  Level Estimated
Fri 11:27:00 PM 45.5607 -122.2169 North  Level Estimated
Fri 11:28:00 PM 45.6445 -122.2204 North  Level Estimated
Fri 11:29:00 PM 45.7282 -122.2239 North  Level Estimated
Fri 11:30:00 PM 45.8120 -122.2274 North  Level Estimated
Fri 11:31:00 PM 45.8958 -122.2310 North  Level Estimated
Fri 11:32:00 PM 45.9796 -122.2345 North  Level Estimated
Fri 11:33:00 PM 46.0634 -122.2381 North  Level Estimated
Fri 11:34:00 PM 46.1471 -122.2416 North  Level Estimated
Fri 11:35:00 PM 46.2309 -122.2452 North  Level Estimated
Fri 11:36:00 PM 46.3147 -122.2488 North  Level Estimated
Fri 11:37:00 PM 46.3985 -122.2524 North  Level Estimated
Fri 11:38:00 PM 46.4823 -122.2560 North  Level Estimated
Fri 11:39:00 PM 46.5661 -122.2596 North  Level Estimated
Fri 11:40:00 PM 46.6498 -122.2632 North  Level Estimated
Fri 11:41:00 PM 46.7336 -122.2668 North  Level Estimated
Fri 11:42:00 PM 46.8174 -122.2705 North  Level Estimated
Fri 11:43:00 PM 46.9012 -122.2741 North  Level Estimated
Fri 11:44:00 PM 46.9850 -122.2778 North  Level Estimated
Fri 11:45:00 PM 47.0687 -122.2815 North  Level Estimated
Fri 11:46:00 PM 47.1525 -122.2852 North  Level Estimated
Fri 11:47:00 PM 47.2363 -122.2889 North  Level Estimated
Fri 11:48:00 PM 47.3201 -122.2926 North  Level Estimated

Login

Don't have an account? Register now (free) for customized features, flight alerts, and more!